KSLO

Salem-Leckrone Airport

Salem, Illinois, USA
METAR KSLO 220515Z AUTO 22004KT 10SM SCT080 19/18 A2972 RMK AO2 T01910180
Observed Flight Rules
Jun-22 @ 05:15 UTC (17 minutes ago) Visual Flight Rules
Wind Visibility Clouds
220° at 4 knots 10 miles
  • Scattered at 8,000' AGL
Temperatures Readings
Current 19°C / 66°F
Dewpoint 18°C / 64°F
Humidity 94%
Altimeter 29.72" Hg
Pressure 1006 hPa
Elevation 175
METAR KSLO 220515Z AUTO 22004KT 10SM SCT080 19/18 A2972 RMK AO2 T01910180
Observed Flight Rules
Jun-22 @ 05:15 UTC
(17 minutes ago)
VFR
Wind Visibility
220° at 4 knots 10 miles
Clouds
  • Scattered at 8,000' AGL
Temperature Dewpoint
19°C / 66°F 18°C / 64°F
Humidity Altimeter Pressure
94% 29.72" Hg 1006 hPa